sensor_id;sensor_type;location;lat;lon;timestamp;temperature;humidity
47514;DHT22;33951;51.988;5.910;2022-10-30T06:05:36;14.60;99.90
47514;DHT22;33951;51.988;5.910;2022-10-30T06:12:10;14.50;99.90
47514;DHT22;33951;51.988;5.910;2022-10-30T06:49:09;14.60;99.90
47514;DHT22;33951;51.988;5.910;2022-10-30T07:05:34;14.50;99.90
47514;DHT22;33951;51.988;5.910;2022-10-30T07:11:56;14.60;99.90
47514;DHT22;33951;51.988;5.910;2022-10-30T07:18:59;14.50;99.90
47514;DHT22;33951;51.988;5.910;2022-10-30T07:21:46;14.60;99.90
47514;DHT22;33951;51.988;5.910;2022-10-30T07:24:41;14.60;99.90
47514;DHT22;33951;51.988;5.910;2022-10-30T07:27:43;14.60;99.90
47514;DHT22;33951;51.988;5.910;2022-10-30T07:33:57;14.60;99.90
47514;DHT22;33951;51.988;5.910;2022-10-30T07:37:29;14.60;99.90
47514;DHT22;33951;51.988;5.910;2022-10-30T07:53:49;15.00;99.90
47514;DHT22;33951;51.988;5.910;2022-10-30T09:35:03;17.10;99.90
47514;DHT22;33951;51.988;5.910;2022-10-30T14:22:02;22.70;99.90
47514;DHT22;33951;51.988;5.910;2022-10-30T15:42:50;21.70;99.90
47514;DHT22;33951;51.988;5.910;2022-10-30T15:55:28;21.40;99.90
47514;DHT22;33951;51.988;5.910;2022-10-30T15:58:14;21.30;99.90
47514;DHT22;33951;51.988;5.910;2022-10-30T16:01:05;21.30;99.90
47514;DHT22;33951;51.988;5.910;2022-10-30T16:04:00;21.20;99.90
47514;DHT22;33951;51.988;5.910;2022-10-30T16:12:45;20.90;99.90
47514;DHT22;33951;51.988;5.910;2022-10-30T16:15:46;20.70;99.90
47514;DHT22;33951;51.988;5.910;2022-10-30T16:18:30;20.50;99.90
47514;DHT22;33951;51.988;5.910;2022-10-30T16:21:17;20.40;99.90
47514;DHT22;33951;51.988;5.910;2022-10-30T16:27:28;20.20;99.90
47514;DHT22;33951;51.988;5.910;2022-10-30T16:50:12;18.90;99.90
47514;DHT22;33951;51.988;5.910;2022-10-30T16:53:40;18.50;99.90
47514;DHT22;33951;51.988;5.910;2022-10-30T16:56:29;18.50;99.90
47514;DHT22;33951;51.988;5.910;2022-10-30T16:59:36;18.50;99.90
47514;DHT22;33951;51.988;5.910;2022-10-30T17:02:12;18.20;99.90
47514;DHT22;33951;51.988;5.910;2022-10-30T17:04:45;17.90;99.90
47514;DHT22;33951;51.988;5.910;2022-10-30T17:07:20;17.90;99.90
47514;DHT22;33951;51.988;5.910;2022-10-30T17:09:47;18.00;99.90
47514;DHT22;33951;51.988;5.910;2022-10-30T17:12:14;18.00;99.90
47514;DHT22;33951;51.988;5.910;2022-10-30T17:14:45;18.10;99.90
47514;DHT22;33951;51.988;5.910;2022-10-30T17:17:32;18.20;99.90
47514;DHT22;33951;51.988;5.910;2022-10-30T17:20:05;18.20;99.90
47514;DHT22;33951;51.988;5.910;2022-10-30T17:22:37;18.20;99.90
47514;DHT22;33951;51.988;5.910;2022-10-30T17:25:29;18.20;99.90
47514;DHT22;33951;51.988;5.910;2022-10-30T17:28:00;18.10;99.90
47514;DHT22;33951;51.988;5.910;2022-10-30T17:30:40;17.90;99.90
47514;DHT22;33951;51.988;5.910;2022-10-30T17:33:26;18.00;99.90
47514;DHT22;33951;51.988;5.910;2022-10-30T17:36:12;17.90;99.90
47514;DHT22;33951;51.988;5.910;2022-10-30T17:38:38;17.80;99.90
47514;DHT22;33951;51.988;5.910;2022-10-30T17:41:13;17.70;99.90
47514;DHT22;33951;51.988;5.910;2022-10-30T17:43:59;17.70;99.90
47514;DHT22;33951;51.988;5.910;2022-10-30T17:46:41;18.00;99.90
47514;DHT22;33951;51.988;5.910;2022-10-30T17:49:22;17.80;99.90
47514;DHT22;33951;51.988;5.910;2022-10-30T17:51:59;17.90;99.90
47514;DHT22;33951;51.988;5.910;2022-10-30T17:54:27;17.80;99.90
47514;DHT22;33951;51.988;5.910;2022-10-30T17:56:57;17.70;99.90
47514;DHT22;33951;51.988;5.910;2022-10-30T17:59:23;17.90;99.90
47514;DHT22;33951;51.988;5.910;2022-10-30T18:01:49;17.90;99.90
47514;DHT22;33951;51.988;5.910;2022-10-30T18:04:21;17.90;99.90
47514;DHT22;33951;51.988;5.910;2022-10-30T18:06:53;17.80;99.90
47514;DHT22;33951;51.988;5.910;2022-10-30T18:09:21;18.00;99.90
47514;DHT22;33951;51.988;5.910;2022-10-30T18:11:55;18.30;99.90
47514;DHT22;33951;51.988;5.910;2022-10-30T18:14:32;18.30;99.90
47514;DHT22;33951;51.988;5.910;2022-10-30T18:16:57;18.30;99.90
47514;DHT22;33951;51.988;5.910;2022-10-30T18:19:46;18.10;99.90
47514;DHT22;33951;51.988;5.910;2022-10-30T18:22:20;18.20;99.90
47514;DHT22;33951;51.988;5.910;2022-10-30T18:24:46;18.20;99.90
47514;DHT22;33951;51.988;5.910;2022-10-30T18:27:14;18.40;99.90
47514;DHT22;33951;51.988;5.910;2022-10-30T18:29:43;18.40;99.90
47514;DHT22;33951;51.988;5.910;2022-10-30T18:33:07;18.40;99.90
47514;DHT22;33951;51.988;5.910;2022-10-30T18:38:53;18.30;99.90
47514;DHT22;33951;51.988;5.910;2022-10-30T18:48:55;17.60;99.90
47514;DHT22;33951;51.988;5.910;2022-10-30T18:51:26;17.50;99.90
47514;DHT22;33951;51.988;5.910;2022-10-30T18:54:15;17.50;99.90
47514;DHT22;33951;51.988;5.910;2022-10-30T18:56:43;17.60;99.90
47514;DHT22;33951;51.988;5.910;2022-10-30T18:59:09;17.50;99.90
47514;DHT22;33951;51.988;5.910;2022-10-30T19:01:35;17.20;99.90
47514;DHT22;33951;51.988;5.910;2022-10-30T19:04:01;17.30;99.90
47514;DHT22;33951;51.988;5.910;2022-10-30T19:06:28;17.40;99.90
47514;DHT22;33951;51.988;5.910;2022-10-30T19:08:54;17.40;99.90
47514;DHT22;33951;51.988;5.910;2022-10-30T19:11:20;17.40;99.90
47514;DHT22;33951;51.988;5.910;2022-10-30T19:13:49;17.40;99.90
47514;DHT22;33951;51.988;5.910;2022-10-30T19:16:17;17.60;99.90
47514;DHT22;33951;51.988;5.910;2022-10-30T19:18:44;17.60;99.90
47514;DHT22;33951;51.988;5.910;2022-10-30T19:21:18;17.40;99.90
47514;DHT22;33951;51.988;5.910;2022-10-30T19:23:49;17.40;99.90
47514;DHT22;33951;51.988;5.910;2022-10-30T19:26:15;17.30;99.90
47514;DHT22;33951;51.988;5.910;2022-10-30T19:28:47;17.40;99.90
47514;DHT22;33951;51.988;5.910;2022-10-30T19:31:17;17.20;99.90
47514;DHT22;33951;51.988;5.910;2022-10-30T19:33:43;17.30;99.90
47514;DHT22;33951;51.988;5.910;2022-10-30T19:36:34;17.30;99.90
47514;DHT22;33951;51.988;5.910;2022-10-30T19:39:01;17.50;99.90
47514;DHT22;33951;51.988;5.910;2022-10-30T19:41:27;17.60;99.90
47514;DHT22;33951;51.988;5.910;2022-10-30T19:43:53;17.50;99.90
47514;DHT22;33951;51.988;5.910;2022-10-30T19:46:19;17.60;99.90
47514;DHT22;33951;51.988;5.910;2022-10-30T19:48:44;17.70;99.90
47514;DHT22;33951;51.988;5.910;2022-10-30T19:51:10;17.50;99.90
47514;DHT22;33951;51.988;5.910;2022-10-30T19:53:41;17.50;99.90
47514;DHT22;33951;51.988;5.910;2022-10-30T19:56:09;17.40;99.90
47514;DHT22;33951;51.988;5.910;2022-10-30T19:58:38;17.00;99.90
47514;DHT22;33951;51.988;5.910;2022-10-30T20:01:03;17.00;99.90
47514;DHT22;33951;51.988;5.910;2022-10-30T23:23:37;15.00;99.90
47514;DHT22;33951;51.988;5.910;2022-10-30T23:26:18;15.00;99.90
47514;DHT22;33951;51.988;5.910;2022-10-30T23:28:45;15.10;99.90
47514;DHT22;33951;51.988;5.910;2022-10-30T23:31:22;15.20;99.90
47514;DHT22;33951;51.988;5.910;2022-10-30T23:33:49;15.20;99.90
